x

9440910 - Toke Point, Wa (tokw1) Weather Station

3:18 - Wed 29th Jun 2016 All times are PDT. -7 hours from GMT.

  • Wind
    10mph, 15mph gusts
  • Sea Temp 61°f
  • Air Temp 55°f
  • Sea Pressure 1023.7mb
  • 9440910 - Toke Point, Wa
  • 9440910 - Toke Point, Wa

More Historic Weather Station data

Upgrade to MSW Pro to gain access to the past 30 days of data for over 8000 Wavebouys and Weather Stations around the globe.

Join Pro

Comparision Forecast

View Surf forecast
   
mer. 06/29 3:18 10 15 mph 1023.7mb 61f 55f
3:12 10 16 mph 1023.6mb 61f 55f
3:06 14 16 mph 1023.6mb 61f 55f
3:00 9 13 mph 1023.5mb 61f 55f
2:54 10 15 mph 1023.5mb 61f 55f
2:48 8 10 mph 1023.5mb 60f 55f
2:42 9 15 mph 1023.5mb 60f 55f
2:36 13 16 mph 1023.4mb 60f 55f
2:30 9 14 mph 1023.5mb 60f 55f
2:24 9 11 mph 1023.5mb 60f 55f
2:18 8 16 mph 1023.6mb 60f 55f
2:12 10 13 mph 1023.6mb 60f 55f
2:06 9 13 mph 1023.5mb 60f 55f
2:00 10 15 mph 1023.5mb 60f 55f
1:54 9 14 mph 1023.5mb 60f 55f
1:48 9 11 mph 1023.5mb 60f 55f
1:42 11 14 mph 1023.5mb 60f 55f
1:36 11 15 mph 1023.5mb 60f 55f
1:30 13 15 mph 1023.5mb 59f 55f
1:24 11 16 mph 1023.5mb 59f 55f
1:18 11 15 mph 1023.5mb 60f 55f
1:12 14 17 mph 1023.5mb 60f 55f
1:06 15 17 mph 1023.5mb 60f 55f
1:00 14 18 mph 1023.5mb 60f 55f
12:54 10 11 mph 1023.5mb 60f 55f
12:48 9 11 mph 1023.5mb 59f 55f
12:42 8 11 mph 1023.5mb 59f 56f
12:36 10 14 mph 1023.5mb 59f 56f
12:30 9 11 mph 1023.5mb 59f 55f
12:24 9 13 mph 1023.5mb 59f 56f
12:18 8 14 mph 1023.5mb 59f 56f
12:12 8 11 mph 1023.5mb 59f 56f
12:06 9 15 mph 1023.5mb 59f 56f
12:00 14 18 mph 1023.5mb 59f 56f
mar. 06/28 11:54 9 13 mph 1023.5mb 59f 56f
11:48 9 13 mph 1023.5mb 59f 56f
11:42 9 11 mph 1023.5mb 59f 56f
11:36 10 14 mph 1023.6mb 59f 56f
11:30 11 14 mph 1023.5mb 59f 56f
11:24 8 14 mph 1023.5mb 59f 56f
11:18 10 14 mph 1023.6mb 58f 56f
11:12 8 14 mph 1023.6mb 59f 56f
11:06 7 10 mph 1023.6mb 59f 56f
11:00 9 14 mph 1023.6mb 58f 56f
10:54 9 11 mph 1023.7mb 58f 56f
10:48  -  mph 1023.7mb 58f 56f
10:42  -  mph 1023.7mb 58f 56f
10:36  -  mph 1023.8mb 58f 56f
10:30 7 10 mph 1023.8mb 58f 56f
10:24 8 16 mph 1023.8mb 58f 56f
10:18 10 14 mph 1023.8mb 58f 56f
10:12 8 13 mph 1023.8mb 57f 56f
10:06 9 15 mph 1023.8mb 57f 56f
10:00 9 15 mph 1023.7mb 57f 56f
9:54 11 16 mph 1023.8mb 57f 56f
9:48 13 15 mph 1023.8mb 56f 56f
9:42 9 11 mph 1023.8mb 57f 56f
9:36 8 11 mph 1023.7mb 55f 56f
9:30 7 10 mph 1023.7mb 54f 56f
9:24 10 15 mph 1023.7mb 54f 56f
9:18 8 11 mph 1023.7mb 55f 57f
9:12 11 16 mph 1023.7mb 55f 56f
9:06 10 14 mph 1023.6mb 54f 57f
9:00 7 10 mph 1023.6mb 53f 57f
8:54 9 14 mph 1023.6mb 53f 57f
8:48  -  mph 1023.6mb 53f 57f
8:42  -  mph 1023.6mb 53f 57f
8:36  -  mph 1023.6mb 53f 57f
8:30 9 13 mph 1023.6mb 53f 57f
8:24 11 17 mph 1023.6mb 53f 57f
8:18 15 17 mph 1023.5mb 53f 57f
8:12 14 16 mph 1023.6mb 53f 57f
8:06 14 18 mph 1023.5mb 54f 57f
8:00  -  mph 1023.6mb 54f -
7:54  -  mph 1023.6mb 55f -
7:48 9 16 mph 1023.6mb 55f -
7:42 9 10 mph 1023.5mb 55f -
7:36 10 16 mph 1023.6mb 55f -
7:30  -  mph 1023.6mb 55f 57f
7:24  -  mph 1023.5mb 56f 57f
7:18  -  mph 1023.6mb 56f 57f
7:12  -  mph 1023.5mb 56f 58f
7:06  -  mph 1023.5mb 56f 58f
7:00  -  mph 1023.5mb 56f 58f
6:54  -  mph 1023.5mb 56f 58f
6:48  -  mph 1023.5mb 56f -
6:42  -  mph 1023.4mb 58f -
6:36  -  mph 1023.5mb 58f -
6:30  -  mph 1023.4mb 58f -
6:24  -  mph 1023.5mb 59f -
6:18  -  mph 1023.5mb 59f 58f
6:12  -  mph 1023.6mb 58f 58f
6:06  -  mph 1023.5mb 58f 58f
6:00  -  mph - 59f 58f
5:54  -  mph - 59f 58f
5:48  -  mph 1023.6mb 59f -
5:42  -  mph 1023.6mb 59f -
5:36  -  mph 1023.7mb 60f -
5:30  -  mph 1023.6mb 60f -
5:24  -  mph 1023.7mb 60f -
5:18  -  mph 1023.8mb 60f 58f
5:12  -  mph 1023.8mb 60f 59f
5:06  -  mph 1023.9mb 61f 59f
5:00  -  mph 1023.9mb 61f -
4:54  -  mph 1023.9mb 61f -
4:48  -  mph - 61f -
4:42  -  mph - 62f -
4:36  -  mph - 62f -
4:30  -  mph 1024mb 61f -
4:24  -  mph 1024mb 61f -
4:18  -  mph 1024mb 62f 59f
4:12  -  mph 1024mb 62f 59f
4:06  -  mph 1024mb 61f 59f
4:00  -  mph 1024.1mb 62f 59f
3:54  -  mph 1024.1mb 62f 59f
3:48  -  mph 1024.1mb 62f -
3:42  -  mph 1024.1mb 62f -
3:36  -  mph 1024.1mb 62f -
3:30  -  mph 1024.2mb 63f -
3:24  -  mph 1024.2mb 62f -
3:18  -  mph 1024.2mb 62f 59f
3:12  -  mph 1024.2mb 62f 58f
3:06  -  mph 1024.3mb 63f 59f
3:00  -  mph 1024.3mb 63f 59f
2:54  -  mph 1024.3mb 63f 59f
2:48  -  mph 1024.3mb 63f 59f
2:42  -  mph 1024.3mb 63f 59f
2:36  -  mph 1024.3mb 63f 59f
2:30 14 17 mph 1024.3mb 63f 59f
2:24 13 15 mph 1024.3mb 63f 59f
2:18 13 16 mph 1024.4mb 63f -
2:12 11 16 mph 1024.5mb 63f 59f
2:06 10 15 mph 1024.5mb 63f 59f
2:00 14 17 mph 1024.4mb 63f 59f
1:54 17 21 mph 1024.3mb 63f 59f
1:48 14 18 mph 1024.3mb 63f 59f
1:42 14 18 mph 1024.4mb 63f 59f
1:36 14 16 mph 1024.4mb 62f 59f
1:30 13 15 mph 1024.4mb 62f 59f
1:24 15 17 mph 1024.4mb 62f 59f
1:18 13 16 mph 1024.5mb 62f 59f
1:12 11 14 mph 1024.5mb 62f 59f
1:06 9 16 mph 1024.5mb 62f 59f
1:00 9 14 mph 1024.5mb 62f 59f
12:54 10 14 mph 1024.6mb 62f 59f
12:48 9 14 mph 1024.6mb 62f 59f
12:42 8 13 mph 1024.6mb 62f 59f
12:36 10 13 mph 1024.7mb 62f 58f
12:30 9 15 mph 1024.7mb 62f 58f
12:24 7 10 mph 1024.7mb 62f 58f
12:18 6 9 mph 1024.7mb 62f 58f
12:12 8 10 mph 1024.7mb 62f 58f
12:06 10 14 mph 1024.7mb 62f 58f
12:00 11 14 mph 1024.7mb 62f 57f
11:54 7 11 mph 1024.8mb 62f 58f
11:48 8 13 mph 1024.8mb 62f 58f
11:42 9 11 mph 1024.8mb 61f 58f
11:36 10 14 mph 1024.8mb 61f 57f
11:30 5 8 mph 1024.9mb 61f 57f
11:24 7 9 mph 1024.9mb 61f 57f
11:18 9 10 mph 1024.9mb 61f 56f
11:12 10 13 mph 1024.8mb 61f 56f
11:06 11 13 mph 1024.8mb 61f 56f
11:00 9 11 mph 1024.8mb 61f 56f
10:54 11 13 mph 1024.7mb 61f 56f
10:48 8 10 mph 1024.7mb 61f 56f
10:42 5 8 mph 1024.7mb 60f 57f
10:36 9 11 mph 1024.6mb 60f 56f
10:30 10 13 mph 1024.7mb 60f 56f
10:24 8 10 mph 1024.7mb 60f 56f
10:18 10
mph
1024.7mb 60f 56f
10:12 8 10 mph 1024.7mb 60f 56f
10:06 9 11 mph 1024.7mb 60f 56f
10:00 7 10 mph 1024.7mb 60f 56f
9:54 9 10 mph 1024.7mb 60f 56f
9:48 7 9 mph 1024.7mb 60f 56f
9:42 8 13 mph 1024.7mb 60f 56f
9:36 8 11 mph 1024.7mb 60f 56f
9:30 7 10 mph 1024.7mb 60f 56f
9:24 9 10 mph 1024.6mb 60f 56f
9:18 7 9 mph 1024.7mb 59f 55f
9:12 7 10 mph 1024.6mb 59f 56f
9:06 7 9 mph 1024.6mb 59f 56f
9:00 7 9 mph 1024.7mb 58f 56f
8:54 6 8 mph 1024.6mb 57f 55f
8:48 8 10 mph 1024.6mb 57f 56f
8:42 5 8 mph 1024.5mb 57f 55f
8:36 5 6 mph 1024.5mb 58f 55f
8:30 6 7 mph 1024.4mb 59f 55f
8:24 3 6 mph 1024.4mb 58f 55f
8:18 6 8 mph 1024.4mb 56f -
8:12 7 10 mph 1024.4mb 56f 55f
8:06 6 7 mph 1024.4mb 56f 55f
8:00 6 7 mph 1024.4mb 56f 55f
7:54 6 8 mph 1024.3mb 56f 55f
7:48 5 6 mph 1024.4mb 56f 55f
7:42 5 6 mph 1024.4mb 56f 55f
7:36 5 7 mph 1024.4mb 56f 55f
7:30 7 8 mph 1024.3mb 56f 55f
7:24 7 9 mph 1024.3mb 56f 55f
7:18 5 7 mph 1024.3mb 57f 55f
7:12 5 6 mph 1024.3mb 57f 55f
7:06 5 6 mph 1024.3mb 58f 55f
7:00 5 6 mph 1024.3mb 59f 55f
6:54 5 8 mph 1024.3mb 59f 55f
6:48  -  mph 1024.3mb 58f 55f
6:42  -  mph 1024.3mb 58f 55f
6:36  -  mph 1024.4mb 59f 55f
6:30 5 6 mph 1024.3mb 59f 55f
6:24 3 6 mph 1024.3mb 59f 55f
6:18 5 6 mph 1024.3mb 59f 55f
6:12 5 6 mph 1024.2mb 59f 55f
6:06 3 6 mph 1024.2mb 59f 55f
6:00 5 6 mph 1024.2mb 60f 55f
5:54 5 7 mph 1024.1mb 60f 55f
5:48 6 7 mph 1024.1mb 60f 55f
5:42 6 8 mph 1024.1mb 60f 55f
5:36 7 10 mph 1024mb 60f 55f
5:30 7 9 mph 1024mb 61f 55f
5:24 6 7 mph 1024mb 61f 55f
5:18 5 6 mph 1024mb 61f 55f
5:12 5 7 mph 1024mb 61f 55f
5:06 5 7 mph 1023.9mb 61f 55f
5:00 7 9 mph 1024mb 61f 55f
4:54 7 9 mph 1023.9mb 61f 55f
4:48 8 10 mph 1023.9mb 62f 55f
4:42 9 11 mph 1023.9mb 62f 55f
4:36 6 11 mph 1023.9mb 62f 55f
4:30 10 13 mph 1023.9mb 62f 55f
4:24 8 10 mph 1023.9mb 62f 55f
4:18 11 14 mph 1023.9mb 62f 55f
4:12 7 8 mph 1023.8mb 62f 55f
4:06 5 7 mph 1023.8mb 62f 55f
4:00 5 7 mph 1023.8mb 62f -
3:54 6 10 mph 1023.8mb 62f -
3:48 8 10 mph 1023.9mb 62f -
3:42 7 9 mph 1023.9mb 63f -
3:36 8 10 mph 1023.9mb 62f -
3:30 8 10 mph 1024mb 62f 56f
3:24 7 14 mph 1024mb 62f 56f
3:18 9 14 mph 1024mb 62f 56f
3:12 7 8 mph 1024mb 62f 56f
3:06 7 9 mph 1024.1mb 63f 56f
3:00 6 7 mph 1024.1mb 63f 56f
2:54 7 10 mph 1024.1mb 63f 56f
2:48 8 11 mph 1024mb 64f 56f
2:42 7 9 mph 1024.1mb 64f 56f
2:36 8 15 mph 1024.1mb 64f 56f
2:30 8 10 mph 1024.1mb 64f 56f
2:24 7 11 mph 1024.1mb 63f 56f
2:18 5 6 mph 1024.2mb 63f 56f
2:12 6 7 mph 1024.1mb 64f 56f
2:06 6 7 mph 1024.2mb 63f 56f
2:00 6 8 mph 1024.1mb 63f 56f
1:54 9 10 mph 1024.1mb 63f 56f
1:48 6 11 mph 1024.1mb 63f 56f
1:42 8 11 mph 1024.1mb 63f 56f
1:36 9 13 mph 1024.1mb 63f 56f
1:30 6 7 mph 1024.2mb 63f 56f
1:24 6 8 mph 1024.2mb 63f 56f
1:18 5 8 mph 1024.1mb 62f 56f
1:12 6 8 mph 1024.1mb 62f 55f
1:06 5 6 mph 1024.1mb 62f 56f
1:00 5 6 mph 1024.2mb 62f 56f
12:54 6 8 mph 1024.2mb 62f 56f
12:48 8 10 mph 1024.2mb 62f 56f
12:42 10 14 mph 1024.2mb 62f 56f
12:36 8 10 mph 1024.2mb 62f 56f
12:30 8 10 mph 1024.2mb 61f 56f
12:24 9 13 mph 1024.2mb 62f 56f
12:18 9 11 mph 1024.2mb 62f 56f
12:12 7 9 mph 1024.2mb 62f 55f
12:06 8 13 mph 1024.1mb 62f 56f
12:00 9 14 mph 1024.1mb 62f 56f
lun. 06/27 11:54 11 15 mph 1024.1mb 61f 56f
11:48 11 14 mph 1024.1mb - -
11:42 10 15 mph 1024.1mb - -
11:36 7 11 mph 1024.2mb - -
11:30 10 11 mph 1024.2mb 61f 56f
11:24 9 10 mph 1024.2mb 61f 56f
11:18 7 9 mph 1024.2mb 61f -
11:12 8 10 mph 1024.3mb 61f 56f
11:06 9 14 mph 1024.3mb 61f 56f
11:00 8 10 mph 1024.3mb 61f 56f
10:54 8 11 mph 1024.3mb 61f 56f
10:48 7 9 mph - - 56f
10:42 8 11 mph - - 56f
10:36 8 11 mph - - 56f
10:30 10 11 mph 1024.4mb 61f 56f
10:24 9 11 mph 1024.3mb 61f 56f
10:18 8 10 mph 1024.4mb 60f 56f
10:12 8 13 mph 1024.4mb 60f 56f
10:06 9 11 mph 1024.4mb 61f 56f
10:00 10 14 mph 1024.3mb 61f 56f
9:54 11 13 mph 1024.4mb 60f 56f
9:48 9 11 mph 1024.3mb 60f 56f
9:42 8 11 mph 1024.3mb 60f 56f
9:36 10 16 mph 1024.2mb 61f 56f
9:30 11 14 mph 1024.1mb 61f 56f
9:24 10 15 mph 1024.1mb 60f 56f
9:18 10 14 mph 1024mb 60f 56f
9:12 11 14 mph 1023.9mb 59f 56f
9:06 9 11 mph 1023.9mb 59f 56f
9:00 11 17 mph 1023.9mb 59f 57f
8:54 14 16 mph 1023.8mb 58f 56f
8:48  -  mph 1023.8mb 56f 57f
8:42  -  mph 1023.8mb 57f 57f
8:36  -  mph 1023.9mb 58f 57f
8:30 9 14 mph 1024mb 57f 57f
8:24 8 13 mph 1024mb 56f 57f
8:18 13 14 mph 1024mb 56f 57f
8:12 10 15 mph 1024.1mb 56f 57f
8:06 8 13 mph 1024mb 56f 57f
8:00  -  mph 1024mb 56f 57f
7:54  -  mph 1024mb 55f 57f
7:48  -  mph 1024mb 55f 57f
7:42  -  mph 1024mb 54f -
7:36  -  mph 1023.9mb 54f -
7:30  -  mph 1023.9mb 54f -
7:24  -  mph 1024mb 55f -
7:18  -  mph 1023.9mb - 57f
7:12  -  mph 1023.8mb - 57f
7:06  -  mph 1023.8mb - 57f
7:00  -  mph 1023.8mb 56f -
6:54  -  mph 1023.8mb 57f -
6:48  -  mph 1023.8mb - -
6:42  -  mph 1023.8mb - -
6:36  -  mph 1023.8mb - -
6:30  -  mph 1023.8mb 58f -
6:24  -  mph 1023.8mb 59f -
6:18  -  mph 1023.8mb 59f -
6:12  -  mph 1023.9mb 58f -
6:06  -  mph 1023.9mb 59f -
6:00  -  mph 1023.9mb 59f 58f
5:54  -  mph 1024mb 59f 58f
5:48  -  mph 1024mb 60f -
5:42  -  mph 1024mb 60f -
5:36  -  mph 1024mb 60f -
5:30  -  mph 1024.1mb 61f -
5:24  -  mph 1024mb 61f -
5:18  -  mph 1024mb 61f -
5:12 13 18 mph 1024mb 61f -
5:06 11 16 mph 1024.1mb 62f -
5:00  -  mph 1024.2mb 62f -
4:54  -  mph 1024.2mb 61f -
4:48 14 17 mph 1024.1mb - -
4:42 13 16 mph 1024.1mb - -
4:36 15 18 mph 1024.1mb - -
4:30  -  mph - 63f -
4:24  -  mph - 63f -
4:18  -  mph 1024.2mb 62f -
4:12  -  mph 1024.2mb 63f -
4:06  -  mph 1024.1mb 63f -
4:00  -  mph 1024.2mb 63f -
3:54  -  mph 1024.1mb 63f -
3:48  -  mph - 63f -
3:42  -  mph - 64f -
3:36  -  mph - 64f -
3:30  -  mph 1024mb 64f 60f
3:24  -  mph 1024mb 64f 60f
3:18  -  mph 1024mb 64f 60f
3:12  -  mph 1024mb 64f 60f
3:06  -  mph 1024mb 65f 60f
3:00  -  mph 1024mb 65f -
2:54  -  mph 1023.9mb 64f -
2:48  -  mph 1023.9mb 64f 60f
2:42  -  mph 1024mb 65f 60f
2:36  -  mph 1024mb 64f 60f
2:30 14 16 mph 1024mb 64f 60f
2:24 13 16 mph 1024mb 65f 60f
2:18 10 15 mph 1024mb 64f 60f
2:12 11 15 mph 1024mb 65f 60f
2:06 10 17 mph 1024mb 65f 60f
2:00 13 16 mph 1024mb 65f 60f
1:54 10 14 mph 1024.1mb 65f 60f
1:48 9 16 mph 1024.1mb 65f 60f
1:42 10 14 mph 1024.1mb 65f 60f
1:36 7 13 mph 1024mb 65f 60f
1:30 10 15 mph 1024mb 65f 60f
1:24 9 14 mph 1024mb 65f 60f
1:18 8 14 mph 1024.1mb 65f 60f
1:12 8 10 mph 1024.2mb 65f 60f
1:06 7 14 mph 1024.2mb 65f 60f
1:00 11 13 mph 1024.1mb 65f 60f
12:54 9 14 mph 1024.1mb 64f 59f
12:48 9 13 mph 1024mb 64f 59f
12:42 7 11 mph 1024mb 64f 60f
12:36 6 10 mph 1024mb 64f 60f
12:30 8 15 mph 1024mb 64f 59f
12:24 13 14 mph 1024mb 64f 59f
12:18 10 13 mph 1024mb 63f 59f
12:12 6 11 mph 1024.1mb 63f 59f
12:06 8 10 mph 1024mb 63f 59f
12:00 6 9 mph 1024mb 63f 59f
11:54 10 11 mph 1024mb 63f 58f
11:48  -  mph 1023.9mb 63f 58f
11:42  -  mph 1023.9mb 63f 58f
11:36  -  mph 1023.8mb 63f 58f
11:30 10 11 mph 1023.8mb 63f 58f
11:24 8 10 mph 1023.7mb 63f 58f
11:18 6 10 mph 1023.7mb 63f 58f
11:12 8 10 mph 1023.8mb 63f 58f
11:06 8 10 mph 1023.8mb 63f 58f
11:00 6 10 mph 1023.9mb 63f 58f
10:54 9 10 mph 1023.8mb 62f 57f
10:48 7 10 mph 1023.8mb 62f 57f
10:42 7 8 mph 1023.8mb 63f 57f
10:36 6 9 mph 1023.7mb 63f 57f
10:30 8 10 mph 1023.6mb 62f 57f
10:24 7 8 mph 1023.6mb 62f 58f
10:18 6
mph
1023.6mb 62f 58f
10:12 7 8 mph 1023.6mb 62f 57f
10:06 7 8 mph 1023.6mb 62f 57f
10:00 6 8 mph 1023.5mb 62f 57f
9:54 8 11 mph 1023.4mb 62f 57f
9:48 7 8 mph 1023.3mb 62f 57f
9:42 7 9 mph 1023.4mb 62f 57f
9:36 6 9 mph 1023.3mb 62f 56f
9:30 9 10 mph 1023.3mb 61f 56f
9:24 7 9 mph 1023.3mb 61f 56f
9:18 6 8 mph 1023.3mb 61f 56f
9:12 6 7 mph 1023.3mb 61f 56f
9:06 5 8 mph 1023.3mb 61f 56f
9:00 7 9 mph 1023.3mb 61f 56f
8:54 7 9 mph 1023.3mb 61f 56f
8:48 6 7 mph 1023.3mb 62f 56f
8:42 6 8 mph 1023.3mb 62f 56f
8:36 7 8 mph 1023.3mb 61f 56f
8:30 6 8 mph 1023.2mb 62f 56f
8:24 7 10 mph 1023.2mb 62f 56f
8:18 8 10 mph 1023.1mb 62f 56f
8:12 9 10 mph 1023.1mb 62f 56f
8:06 8 9 mph 1023.1mb 62f 56f
8:00 9 10 mph 1023.1mb 61f 56f
7:54 7 11 mph 1023.1mb 60f 56f
7:48 6 9 mph 1023mb 60f 55f
7:42 6 10 mph 1023mb 60f 55f
7:36 8 9 mph 1023mb 60f 55f
7:30 7 11 mph 1022.9mb 61f 55f
7:24 8 13 mph 1022.8mb 61f 55f
7:18 7 9 mph 1022.8mb 60f 55f
7:12 7 9 mph 1022.8mb 60f 55f
7:06 6 8 mph 1022.8mb 60f 55f
7:00 3 8 mph 1022.9mb 58f 55f
6:54 6 7 mph 1022.9mb 58f 55f
6:48 5 8 mph 1022.7mb 58f 55f
6:42 5 6 mph 1022.6mb 58f 55f
6:36 6 9 mph 1022.6mb 58f 55f
6:30 6 9 mph 1022.5mb 58f 55f
6:24 5 8 mph 1022.5mb 58f 55f
6:18 6 7 mph 1022.5mb 58f 55f
6:12 7 9 mph 1022.4mb 59f 55f
6:06 8 10 mph 1022.3mb 60f 55f
6:00 10 13 mph 1022.3mb 60f 55f
5:54 6 8 mph 1022.2mb 59f 55f
5:48 7 13 mph 1022mb 60f 55f
5:42 9 13 mph 1021.9mb 60f 55f
5:36 8 11 mph 1021.9mb 60f 55f
5:30 10 15 mph 1021.9mb 61f 55f
5:24 9 11 mph 1021.8mb 61f 55f
5:18 8 14 mph 1021.8mb 61f 56f
5:12 10 13 mph 1021.7mb 61f 55f
5:06 8 10 mph 1021.7mb 61f 56f
5:00 9 10 mph 1021.7mb 62f 56f
4:54 7 8 mph 1021.6mb 62f 56f
4:48 7 8 mph 1021.6mb 62f 56f
4:42 7 9 mph 1021.6mb 62f 56f
4:36 8 10 mph 1021.6mb 62f 56f
4:30 7 9 mph 1021.5mb 63f 56f
4:24 6 7 mph 1021.6mb 63f 56f
4:18 6 7 mph 1021.5mb 63f 56f
4:12 8 10 mph 1021.5mb 63f 56f
4:06 8 10 mph 1021.4mb 62f 56f
4:00 6 8 mph 1021.4mb 63f 56f
3:54 6 7 mph 1021.4mb 63f 56f
3:48 6 8 mph 1021.4mb 64f 56f
3:42 6 8 mph 1021.3mb 64f 56f
3:36 6 9 mph 1021.3mb 63f 56f
3:30 7 9 mph 1021.3mb 64f 56f
3:24 7 8 mph 1021.3mb 64f 56f
3:18 5 6 mph 1021.3mb 64f 56f
3:12 5 7 mph 1021.3mb 64f 56f
3:06 7 8 mph 1021.2mb 64f 56f
3:00 6 7 mph 1021.2mb 64f 56f
2:54 6 7 mph 1021.2mb 64f 56f
2:48 6 8 mph 1021.2mb 64f 56f
2:42 6
mph
1021.1mb 64f 56f
2:36 5
mph
1021.1mb 64f 56f
2:30 3 5 mph 1021.1mb 64f 57f
2:24 3 6 mph 1021mb 64f 57f
2:18 5 6 mph 1021mb 64f 57f
2:12 3 5 mph 1021mb 64f 57f
2:06 2 3 mph 1021mb 64f 57f
2:00 1 2 mph 1020.9mb 64f 57f
1:54 2
mph
1020.8mb 64f 57f
1:48 2 3 mph 1020.8mb 64f 57f
1:42 2 3 mph 1020.7mb 64f 57f
1:36 2 5 mph 1020.7mb 64f 57f
1:30 3 5 mph 1020.7mb 64f 57f
1:24 3 5 mph 1020.8mb 65f 57f
1:18 3 6 mph 1020.8mb 65f 58f
1:12 5 6 mph 1020.7mb 65f 58f
1:06 5 6 mph 1020.8mb 65f 58f
1:00 5 6 mph 1020.7mb 65f 58f
12:54 6 7 mph 1020.7mb 65f 58f
12:48 3 5 mph 1020.8mb 65f 58f
12:42 5 7 mph 1020.8mb 65f 58f
12:36 5 8 mph 1020.8mb 65f 58f
12:30 6
mph
1020.7mb 65f 58f
12:24 5 7 mph 1020.6mb 66f 59f
12:18 5 7 mph 1020.6mb 66f 59f
12:12 6 8 mph 1020.6mb 66f 59f
12:06 5 6 mph 1020.7mb 66f 59f
12:00 3 6 mph 1020.8mb 66f 59f
dim. 06/26 11:54 3 6 mph 1020.8mb 66f 59f
11:48 6 8 mph 1020.8mb 66f -
11:42 8 9 mph 1020.8mb 66f -
11:36 8 9 mph 1020.8mb 66f -
11:30 7 9 mph 1020.9mb 65f 59f
11:24 8 10 mph 1020.8mb 65f 59f
11:18 7 9 mph 1020.9mb 65f 60f
11:12 8 9 mph 1020.9mb 65f 60f
11:06 6 8 mph 1020.8mb 65f 60f
11:00 6 9 mph 1020.8mb 64f 60f
10:54 8 10 mph 1020.8mb 64f 60f
10:48 6 8 mph 1020.8mb - -
10:42 6 8 mph 1020.8mb - -
10:36 6 7 mph 1020.8mb - -
10:30 6 7 mph 1020.7mb 64f 60f
10:24 6 9 mph 1020.7mb 64f 60f
10:18 8 10 mph 1020.6mb 64f 60f
10:12 9 11 mph 1020.6mb 63f 60f
10:06 6 10 mph 1020.7mb 62f 61f
10:00 5 9 mph 1020.7mb 65f 61f
9:54 8 10 mph 1020.6mb 65f 61f
9:48 5 7 mph 1020.6mb 63f 61f
9:42 7 8 mph 1020.5mb 64f 61f
9:36 7 11 mph 1020.4mb 65f 62f
9:30 7 10 mph 1020.4mb 65f 62f
9:24 6 9 mph 1020.4mb 65f 61f
9:18 7 10 mph 1020.4mb 64f 62f
9:12 10 16 mph 1020.4mb 65f 62f
9:06 13 22 mph 1020.2mb 64f 62f
9:00 20 23 mph 1020mb 64f 62f
8:54 18 23 mph 1019.9mb 64f 62f
8:48 21 23 mph 1019.9mb 65f 62f
8:42 18 23 mph 1019.9mb 65f 63f
8:36 20 22 mph 1020mb 64f 63f
8:30 21 25 mph 1019.9mb 63f 63f
8:24 22 25 mph 1019.9mb 62f 63f
8:18 22 26 mph 1019.8mb 62f 63f
8:12 23 28 mph 1019.8mb 62f 63f
8:06 24 29 mph 1019.9mb 61f 64f
8:00  -  mph 1019.9mb 59f 64f
7:54  -  mph 1019.9mb 59f 64f
7:48  -  mph 1019.9mb 60f -
7:42  -  mph 1019.9mb 60f -
7:36  -  mph 1019.9mb 60f -
7:30  -  mph 1019.9mb 58f -
7:24  -  mph 1019.9mb 58f -
7:18 23 28 mph 1019.9mb 58f 65f
7:12 22 26 mph 1019.8mb 57f 65f
7:06 22 28 mph 1019.9mb 58f 65f
7:00  -  mph 1019.9mb 58f -
6:54  -  mph 1019.9mb 58f -
6:48  -  mph 1020mb 58f -
6:42  -  mph 1020mb 58f -
6:36  -  mph 1019.9mb 58f -
6:30  -  mph 1019.9mb 58f -
6:24  -  mph 1019.9mb 58f -
6:18 20 28 mph 1019.9mb 59f 66f
6:12 23 26 mph 1019.9mb 59f 66f
6:06 20 26 mph 1019.9mb 60f 66f
6:00  -  mph 1019.9mb 60f -
5:54  -  mph 1020mb 60f -
5:48  -  mph 1020mb 60f 66f
5:42  -  mph 1020mb 61f 67f
5:36  -  mph 1020mb 61f 67f
5:30  -  mph - 62f 67f
5:24  -  mph - 62f 67f
5:18  -  mph 1020.1mb 62f 67f
5:12  -  mph 1020.2mb 62f 67f
5:06  -  mph 1020.1mb 62f 67f
5:00  -  mph 1020.1mb 62f -
4:54  -  mph 1020.1mb 63f -
4:48  -  mph 1020.2mb - -
4:42  -  mph 1020.2mb - -
4:36  -  mph 1020.1mb - -
4:30 21 24 mph 1020.1mb - -
4:24 21 23 mph 1020.2mb - -
4:18  -  mph 1020.3mb 64f 69f
4:12  -  mph 1020.2mb 63f 70f
4:06  -  mph 1020.2mb 64f 70f
4:00 18 23 mph 1020.2mb 64f -
3:54 16 20 mph 1020.2mb 64f -
3:48  -  mph 1020.3mb 65f 70f
3:42  -  mph 1020.3mb 65f 70f
3:36  -  mph 1020.3mb 65f 70f
3:30  -  mph 1020.4mb 65f 70f
3:24  -  mph 1020.4mb 65f 71f
3:18  -  mph 1020.5mb 65f 71f
3:12  -  mph 1020.5mb 65f 71f
3:06  -  mph 1020.6mb 65f 71f
3:00  -  mph 1020.6mb 67f -
2:54  -  mph 1020.7mb 67f -
2:48  -  mph 1020.7mb 66f 71f
2:42  -  mph 1020.8mb 66f 71f
2:36  -  mph 1020.8mb 66f 70f
2:30 15 17 mph 1020.9mb 66f 70f
2:24 15 21 mph 1020.9mb 65f 71f
2:18 17 22 mph 1020.9mb 66f 70f
2:12 16 20 mph 1021mb 65f 71f
2:06 17 21 mph 1021mb 66f 71f
2:00 17 21 mph 1021mb 66f 70f
1:54 18 22 mph 1021mb 65f 70f
1:48 15 20 mph 1021mb 65f 71f
1:42 14 18 mph 1021.1mb 65f 72f
1:36 16 18 mph 1021.1mb 65f 71f
1:30 11 16 mph 1021.3mb 66f 72f
1:24 13 15 mph 1021.3mb 66f 71f
1:18 9 13 mph 1021.4mb 66f 73f
1:12 9 14 mph 1021.4mb 66f 73f
1:06 9 15 mph 1021.4mb 66f 73f
1:00 3 13 mph 1021.5mb 66f 74f
12:54 13 17 mph 1021.6mb 65f 73f
12:48 10 18 mph 1021.6mb 66f 74f
12:42 11 16 mph 1021.5mb 66f 73f
12:36 11 15 mph 1021.6mb 65f 73f
12:30 11 18 mph 1021.6mb 66f 73f
12:24 11 13 mph 1021.7mb 66f 73f
12:18 13 17 mph 1021.8mb 66f 72f
12:12 16 22 mph 1021.8mb 67f 72f
12:06 10 15 mph 1021.9mb 66f 72f
12:00 13 17 mph 1021.9mb 65f 71f
11:54 13 16 mph 1021.9mb 65f 71f
11:48 16 20 mph 1022mb 65f 71f
11:42 14 21 mph 1021.9mb 65f 71f
11:36 11 20 mph 1022mb 65f 70f
11:30 11 16 mph 1022.1mb 65f 70f
11:24 9 14 mph 1022.2mb 66f 70f
11:18 11 15 mph 1022.2mb 65f 70f
11:12 14 18 mph 1022.2mb 64f 70f
11:06 16 21 mph 1022.1mb 64f 70f
11:00 14 18 mph 1022.1mb 64f 69f
10:54 14 17 mph 1022.1mb 64f 69f
10:48 13 17 mph 1022.2mb 64f 69f
10:42 13 17 mph 1022.3mb 64f 68f
10:36 11 15 mph 1022.4mb 63f 68f
10:30 10 16 mph 1022.5mb 64f 68f
10:24 8 11 mph 1022.5mb 63f 67f
10:18 2 3 mph 1022.6mb 63f 66f
10:12 5 6 mph 1022.6mb 63f 65f
10:06 5 6 mph 1022.6mb 62f 65f
10:00 5 7 mph 1022.7mb 62f 65f
9:54 6
mph
1022.7mb 62f 64f
9:48 3 6 mph 1022.8mb 62f 64f
9:42 2 5 mph 1022.8mb 62f 64f
9:36 1 2 mph 1022.9mb 62f 64f
9:30 2 5 mph 1023mb 62f 64f
9:24  -  2 mph 1023mb 62f 64f
9:18 1 2 mph 1022.9mb 62f 63f
9:12  -  2 mph 1023mb 62f 62f
9:06 1 3 mph 1023mb 62f 62f
9:00 2 5 mph 1023mb 62f 61f
8:54 3 5 mph 1023mb 62f 60f
8:48 3 6 mph 1023.1mb 62f 60f
8:42 5 7 mph 1023mb 62f 60f
8:36 6 7 mph 1023mb 62f 59f
8:30 6 7 mph 1023.1mb 61f 59f
8:24 6 8 mph 1023.1mb 62f 59f
8:18 8 9 mph 1023.1mb 61f 58f
8:12 8 10 mph 1023.1mb 61f 58f
8:06 8 9 mph 1023.1mb 61f 58f
8:00 8 10 mph 1023.1mb 61f 58f
7:54 9 10 mph 1023.1mb 61f 57f
7:48 10 11 mph 1023mb 61f 56f
7:42 11 13 mph 1023mb 61f 56f
7:36 10 11 mph 1023mb 61f 56f
7:30 9 10 mph 1023.1mb 61f 55f
7:24 10
mph
1023.1mb 62f 55f
7:18 10 11 mph 1023.1mb 61f 55f
7:12 10 11 mph 1023.1mb 61f 55f
7:06 9 11 mph 1023.1mb 61f 54f
7:00 9 11 mph 1023mb 61f 54f
6:54 10 11 mph 1023mb 61f 54f
6:48 10 11 mph 1023.1mb 61f 54f
6:42 9 10 mph 1023mb 61f 54f
6:36 9 10 mph 1023mb 61f 54f
6:30 9 11 mph 1023mb 61f 53f
6:24 10 11 mph 1022.9mb 61f 53f
6:18 10
mph
1023mb 61f 53f
6:12 10 11 mph 1023mb 61f 53f
6:06 9 10 mph 1023mb 61f 54f
6:00 9 10 mph 1023mb 61f 53f
5:54 10 13 mph 1023mb 61f 54f
5:48 10 11 mph 1023mb 61f 54f
5:42 9 11 mph 1023mb 61f 54f
5:36 10 11 mph 1023mb 60f 54f
5:30 10 11 mph 1022.9mb 60f 54f
5:24 9 10 mph 1022.9mb 60f 54f
5:18 9 10 mph 1022.9mb 60f 54f
5:12 8 10 mph 1022.9mb 60f 54f
5:06 8 10 mph 1022.9mb 60f 54f
5:00 9 10 mph 1022.9mb 60f 54f
4:54 7 8 mph 1022.9mb 60f 54f
4:48 8 9 mph 1022.9mb 61f 54f
4:42 8 9 mph 1022.8mb 61f 54f
4:36 7 8 mph 1022.8mb 62f 54f
4:30 7 8 mph 1022.8mb 62f 55f
4:24 6 7 mph 1022.8mb 62f 55f
4:18 6 7 mph 1022.8mb 62f 55f
4:12 6 7 mph 1022.9mb 62f 55f
4:06 6
mph
1023mb 62f 55f
4:00 3 5 mph 1023.1mb 62f 55f
3:54 5
mph
1023mb 62f 55f
3:48 3
mph
1023mb 62f 55f
3:42 3
mph
1023mb 62f 54f
3:36 2 3 mph 1023mb 62f 54f
3:30 2 3 mph 1023.1mb 62f 54f
3:24 3 5 mph 1023.1mb 62f 55f
3:18 3 6 mph 1023.2mb 62f 55f
3:12 5 6 mph 1023.1mb 62f 55f
3:06 5 6 mph 1023.1mb 63f 55f
3:00 6 7 mph 1023.1mb 62f 55f
2:54 6 7 mph 1023.1mb 62f 55f
2:48 6 8 mph 1023.1mb 63f 55f
2:42 6 7 mph 1023.1mb 62f 56f
2:36 7 8 mph 1023.1mb 63f 55f
2:30 6 8 mph 1023.1mb 62f 56f
2:24 8 10 mph 1023.1mb 63f 56f
2:18 6 8 mph 1023.1mb 63f 56f
2:12 5
mph
1023.1mb 63f 56f
2:06 3 6 mph 1023.2mb 63f 56f
2:00 6
mph
1023.2mb 63f 56f
1:54 6 7 mph 1023.2mb 63f 56f
1:48 5 6 mph 1023.2mb 63f 56f
1:42 5 6 mph 1023.2mb 63f 56f
1:36 3 5 mph 1023.2mb 63f 56f
1:30 3 5 mph 1023.2mb 63f 56f
1:24 2 5 mph 1023.3mb 63f 56f
1:18 2 3 mph 1023.2mb 63f 56f
1:12 3 5 mph 1023.3mb 63f 56f
1:06 3 6 mph 1023.3mb 63f 56f
1:00 6 7 mph 1023.3mb 63f 56f
12:54 5 6 mph 1023.3mb 63f 57f
12:48 5 6 mph 1023.4mb 63f 56f
12:42 5 7 mph 1023.5mb 63f 57f
12:36 6 7 mph 1023.5mb 63f 57f
12:30 5 6 mph 1023.5mb 64f -
12:24 3 6 mph 1023.5mb 64f -
12:18 6 8 mph 1023.6mb 64f 57f
12:12 6 8 mph 1023.5mb 64f 57f
12:06 5 6 mph 1023.5mb 64f 57f
12:00 6 7 mph 1023.5mb 65f 56f
sam. 06/25 11:54 6 8 mph 1023.5mb 65f 56f
11:48 7 10 mph 1023.5mb 65f -
11:42 8 10 mph 1023.5mb 65f -
11:36 8 10 mph 1023.5mb 65f -
11:30 9 10 mph 1023.5mb 65f 57f
11:24 8 10 mph 1023.6mb 65f 57f
11:18 8 10 mph 1023.7mb 65f 57f
11:12 8 10 mph 1023.7mb 65f 57f
11:06 9 14 mph 1023.6mb 64f 57f
11:00  -  mph 1023.6mb 64f 57f
10:54  -  mph 1023.6mb 64f 57f
10:48  -  mph 1023.6mb 64f 57f
10:42  -  mph 1023.7mb 64f 57f
10:36  -  mph 1023.7mb 64f 58f
10:30 14 16 mph 1023.8mb 64f 57f
10:24 11 16 mph 1023.8mb 64f 58f
10:18 14 18 mph 1023.7mb 64f 58f
10:12 16 18 mph 1023.6mb 64f 57f
10:06 15 18 mph 1023.6mb 64f 58f
10:00 15 20 mph 1023.6mb 64f 58f
9:54 16 20 mph 1023.6mb 63f 58f
9:48 15 21 mph 1023.6mb 63f 58f
9:42 15 20 mph 1023.5mb 63f 58f
9:36 16 21 mph 1023.4mb 63f 58f
9:30 16 22 mph 1023.3mb 63f 58f
9:24 17 22 mph 1023.3mb 63f 58f
9:18 18 21 mph 1023.3mb 63f 58f
9:12 18 22 mph 1023.2mb 63f 58f
9:06 16 20 mph 1023.2mb 64f 59f
9:00 16 20 mph 1023.2mb 63f 59f
8:54 16 21 mph 1023.1mb 63f 59f
8:48  -  mph 1023.1mb 64f 59f
8:42  -  mph 1023.1mb 64f 60f
8:36  -  mph 1023.1mb 65f 60f
8:30 17 24 mph 1023.1mb 65f 60f
8:24 21 24 mph 1023.2mb 64f 60f
8:18 21 24 mph 1023.2mb 65f 60f
8:12 18 25 mph 1023.2mb 64f 60f
8:06 21 23 mph 1023.2mb 64f 60f
8:00  -  mph 1023.3mb 64f 60f
7:54  -  mph 1023.3mb 63f 60f
7:48  -  mph 1023.3mb 62f -
7:42  -  mph 1023.4mb 62f -
7:36  -  mph 1023.4mb 62f -
7:30  -  mph 1023.5mb 62f 61f
7:24  -  mph 1023.5mb 62f 61f
7:18 18 23 mph - 62f 61f
7:12 18 25 mph - 62f 61f
7:06 21 23 mph - 62f 61f
7:00  -  mph 1023.4mb 62f 61f
6:54  -  mph 1023.4mb 62f 62f
6:48  -  mph 1023.4mb 61f -
6:42  -  mph 1023.4mb 61f -
6:36  -  mph 1023.4mb 61f -
6:30  -  mph 1023.5mb 61f 62f
6:24  -  mph 1023.5mb 61f 62f
6:18  -  mph 1023.5mb 61f 62f
6:12  -  mph 1023.6mb 61f 62f
6:06  -  mph 1023.7mb 61f 62f
6:00  -  mph 1023.7mb 61f -
5:54  -  mph 1023.7mb 61f -
5:48 16 21 mph 1023.7mb 61f -
5:42 16 20 mph 1023.8mb 61f -
5:36 17 21 mph 1023.9mb 61f -
5:30 17 21 mph - - -
5:24 17 22 mph - - -
5:18  -  mph 1024.1mb 61f 62f
5:12  -  mph 1024mb 61f 63f
5:06  -  mph 1024.1mb 61f 63f
5:00  -  mph - 61f 63f
4:54  -  mph - 61f 63f
4:48 16 20 mph 1024.3mb 61f -
4:42 16 20 mph 1024.3mb 61f -
4:36 16 18 mph 1024.3mb 62f -
4:30  -  mph 1024.4mb 62f -
4:24  -  mph 1024.4mb 62f -
4:18  -  mph 1024.4mb 62f 64f
4:12  -  mph 1024.4mb 62f 64f
4:06  -  mph 1024.4mb 62f 64f
4:00  -  mph 1024.5mb 62f -
3:54  -  mph 1024.4mb 62f -
3:48  -  mph - 62f -
3:42  -  mph - 63f -
3:36  -  mph - 62f -
3:30  -  mph 1024.4mb 62f -
3:24  -  mph 1024.5mb 62f -
3:18  -  mph 1024.4mb 62f -
3:12  -  mph 1024.6mb 62f 65f
3:06  -  mph 1024.7mb 63f 65f
3:00  -  mph - 62f -
2:54  -  mph - 62f -
2:48  -  mph 1024.9mb 62f 65f
2:42  -  mph 1024.9mb 62f 64f
2:36  -  mph 1025mb 63f 64f
2:30 5 6 mph 1025.1mb 62f 64f
2:24 5 6 mph 1025.1mb 63f 63f
2:18 5 6 mph 1025.1mb 62f 63f
2:12 5
mph
1025.2mb 63f 64f
2:06 3
mph
1025.2mb 64f 64f
2:00 3 6 mph 1025.3mb 64f 64f
1:54 2 8 mph 1025.3mb 63f 64f
1:48 8 10 mph 1025.3mb 63f 63f
1:42 7 10 mph 1025.3mb 62f 63f
1:36 7 9 mph 1025.3mb 62f 63f
1:30 5 9 mph 1025.3mb 63f 63f
1:24 9 11 mph 1025.3mb 63f 63f
1:18 7 10 mph 1025.3mb 63f 63f
1:12 8 11 mph 1025.4mb 63f 62f
1:06 10 13 mph 1025.5mb 63f 62f
1:00 7 13 mph 1025.5mb 63f 62f
12:54 10 13 mph 1025.5mb 63f 62f
12:48 7 11 mph 1025.5mb 63f 62f
12:42 8 13 mph 1025.5mb 64f 62f
12:36 9 11 mph 1025.5mb 63f 62f
12:30 8 11 mph 1025.5mb 63f 62f
12:24 10 13 mph 1025.5mb 63f 62f
12:18 11 13 mph 1025.5mb 63f 62f
12:12 10
mph
1025.5mb 63f 62f
12:06 9 11 mph 1025.5mb 63f 62f
12:00 8 9 mph 1025.5mb 63f 62f
11:54 5 8 mph 1025.6mb 63f 62f
11:48 8 9 mph 1025.6mb 63f 62f
11:42 7 8 mph 1025.6mb 63f 62f
11:36 8 10 mph 1025.6mb 63f 62f
11:30 7 9 mph 1025.6mb 63f 62f
11:24 8 11 mph 1025.6mb 63f 62f
11:18 8 11 mph 1025.5mb 63f 62f
11:12 7 13 mph 1025.5mb 63f 61f
11:06 8 10 mph 1025.6mb 64f 61f